sensor_id;sensor_type;location;lat;lon;timestamp;P1;durP1;ratioP1;P2;durP2;ratioP2
49101;SDS011;34913;47.520;19.186;2023-04-03T00:01:04;4.60;;;3.65;;
49101;SDS011;34913;47.520;19.186;2023-04-03T00:03:30;6.78;;;3.65;;
49101;SDS011;34913;47.520;19.186;2023-04-03T00:05:56;5.25;;;3.92;;
49101;SDS011;34913;47.520;19.186;2023-04-03T00:08:21;4.85;;;3.97;;
49101;SDS011;34913;47.520;19.186;2023-04-03T00:10:47;4.90;;;3.85;;
49101;SDS011;34913;47.520;19.186;2023-04-03T00:13:13;5.00;;;3.67;;
49101;SDS011;34913;47.520;19.186;2023-04-03T00:15:39;5.00;;;3.70;;
49101;SDS011;34913;47.520;19.186;2023-04-03T00:18:05;4.90;;;3.97;;
49101;SDS011;34913;47.520;19.186;2023-04-03T00:20:31;5.43;;;3.92;;
49101;SDS011;34913;47.520;19.186;2023-04-03T00:22:57;5.95;;;4.00;;
49101;SDS011;34913;47.520;19.186;2023-04-03T00:25:23;5.53;;;4.25;;
49101;SDS011;34913;47.520;19.186;2023-04-03T00:27:48;5.88;;;4.10;;
49101;SDS011;34913;47.520;19.186;2023-04-03T00:30:15;5.57;;;4.25;;
49101;SDS011;34913;47.520;19.186;2023-04-03T00:32:42;5.60;;;4.40;;
49101;SDS011;34913;47.520;19.186;2023-04-03T00:35:07;6.53;;;4.50;;
49101;SDS011;34913;47.520;19.186;2023-04-03T00:37:33;6.07;;;4.45;;
49101;SDS011;34913;47.520;19.186;2023-04-03T00:40:00;5.75;;;4.68;;
49101;SDS011;34913;47.520;19.186;2023-04-03T00:42:25;6.10;;;4.85;;
49101;SDS011;34913;47.520;19.186;2023-04-03T00:47:22;6.70;;;5.18;;
49101;SDS011;34913;47.520;19.186;2023-04-03T00:49:48;6.10;;;4.95;;
49101;SDS011;34913;47.520;19.186;2023-04-03T00:52:17;6.72;;;4.60;;
49101;SDS011;34913;47.520;19.186;2023-04-03T00:54:46;5.97;;;4.65;;
49101;SDS011;34913;47.520;19.186;2023-04-03T00:57:13;6.15;;;4.75;;
49101;SDS011;34913;47.520;19.186;2023-04-03T00:59:45;6.43;;;4.75;;
49101;SDS011;34913;47.520;19.186;2023-04-03T01:02:15;6.18;;;4.80;;
49101;SDS011;34913;47.520;19.186;2023-04-03T01:04:42;6.18;;;4.47;;
49101;SDS011;34913;47.520;19.186;2023-04-03T01:07:10;5.70;;;4.65;;
49101;SDS011;34913;47.520;19.186;2023-04-03T01:09:43;6.13;;;4.72;;
49101;SDS011;34913;47.520;19.186;2023-04-03T01:14:50;5.97;;;4.80;;
49101;SDS011;34913;47.520;19.186;2023-04-03T01:20:46;5.93;;;5.05;;
49101;SDS011;34913;47.520;19.186;2023-04-03T01:25:48;6.22;;;4.90;;
49101;SDS011;34913;47.520;19.186;2023-04-03T01:28:17;8.23;;;5.18;;
49101;SDS011;34913;47.520;19.186;2023-04-03T01:33:52;6.70;;;4.60;;
49101;SDS011;34913;47.520;19.186;2023-04-03T01:36:23;6.70;;;4.47;;
49101;SDS011;34913;47.520;19.186;2023-04-03T01:41:16;5.20;;;4.32;;
49101;SDS011;34913;47.520;19.186;2023-04-03T01:43:42;6.38;;;4.70;;
49101;SDS011;34913;47.520;19.186;2023-04-03T01:46:08;5.63;;;4.15;;
49101;SDS011;34913;47.520;19.186;2023-04-03T01:48:33;6.63;;;4.70;;
49101;SDS011;34913;47.520;19.186;2023-04-03T01:50:59;5.97;;;4.57;;
49101;SDS011;34913;47.520;19.186;2023-04-03T01:53:25;5.95;;;4.20;;
49101;SDS011;34913;47.520;19.186;2023-04-03T01:55:50;4.90;;;4.10;;
49101;SDS011;34913;47.520;19.186;2023-04-03T01:58:16;7.22;;;4.45;;
49101;SDS011;34913;47.520;19.186;2023-04-03T02:00:42;6.30;;;3.88;;
49101;SDS011;34913;47.520;19.186;2023-04-03T02:03:07;5.40;;;4.10;;
49101;SDS011;34913;47.520;19.186;2023-04-03T02:05:33;4.70;;;4.00;;
49101;SDS011;34913;47.520;19.186;2023-04-03T02:07:58;5.53;;;4.18;;
49101;SDS011;34913;47.520;19.186;2023-04-03T02:10:24;4.60;;;3.95;;
49101;SDS011;34913;47.520;19.186;2023-04-03T02:12:49;5.70;;;3.92;;
49101;SDS011;34913;47.520;19.186;2023-04-03T02:15:15;4.88;;;3.70;;
49101;SDS011;34913;47.520;19.186;2023-04-03T02:17:41;4.93;;;3.88;;
49101;SDS011;34913;47.520;19.186;2023-04-03T02:20:07;4.57;;;3.85;;
49101;SDS011;34913;47.520;19.186;2023-04-03T02:22:33;4.53;;;3.70;;
49101;SDS011;34913;47.520;19.186;2023-04-03T02:24:58;5.30;;;3.65;;
49101;SDS011;34913;47.520;19.186;2023-04-03T02:27:24;5.97;;;3.75;;
49101;SDS011;34913;47.520;19.186;2023-04-03T02:29:49;5.22;;;3.92;;
49101;SDS011;34913;47.520;19.186;2023-04-03T02:32:15;5.22;;;3.70;;
49101;SDS011;34913;47.520;19.186;2023-04-03T02:34:40;5.15;;;3.42;;
49101;SDS011;34913;47.520;19.186;2023-04-03T02:37:06;5.10;;;3.33;;
49101;SDS011;34913;47.520;19.186;2023-04-03T02:39:31;4.07;;;3.20;;
49101;SDS011;34913;47.520;19.186;2023-04-03T02:41:56;4.47;;;3.42;;
49101;SDS011;34913;47.520;19.186;2023-04-03T02:44:22;4.50;;;3.13;;
49101;SDS011;34913;47.520;19.186;2023-04-03T02:46:48;4.35;;;3.40;;
49101;SDS011;34913;47.520;19.186;2023-04-03T02:49:14;3.90;;;2.92;;
49101;SDS011;34913;47.520;19.186;2023-04-03T02:51:40;3.85;;;2.95;;
49101;SDS011;34913;47.520;19.186;2023-04-03T02:54:06;4.15;;;3.20;;
49101;SDS011;34913;47.520;19.186;2023-04-03T02:56:32;4.55;;;3.30;;
49101;SDS011;34913;47.520;19.186;2023-04-03T02:58:58;3.83;;;3.22;;
49101;SDS011;34913;47.520;19.186;2023-04-03T03:01:24;4.30;;;3.10;;
49101;SDS011;34913;47.520;19.186;2023-04-03T03:03:49;3.75;;;2.90;;
49101;SDS011;34913;47.520;19.186;2023-04-03T03:06:16;4.43;;;3.30;;
49101;SDS011;34913;47.520;19.186;2023-04-03T03:08:42;4.68;;;3.15;;
49101;SDS011;34913;47.520;19.186;2023-04-03T03:11:08;4.00;;;3.30;;
49101;SDS011;34913;47.520;19.186;2023-04-03T03:13:35;4.05;;;3.20;;
49101;SDS011;34913;47.520;19.186;2023-04-03T03:16:01;3.63;;;3.03;;
49101;SDS011;34913;47.520;19.186;2023-04-03T03:18:27;3.40;;;3.10;;
49101;SDS011;34913;47.520;19.186;2023-04-03T03:20:54;4.93;;;3.40;;
49101;SDS011;34913;47.520;19.186;2023-04-03T03:23:21;3.75;;;3.15;;
49101;SDS011;34913;47.520;19.186;2023-04-03T03:25:48;3.85;;;3.00;;
49101;SDS011;34913;47.520;19.186;2023-04-03T03:28:13;4.25;;;3.33;;
49101;SDS011;34913;47.520;19.186;2023-04-03T03:30:38;4.63;;;3.10;;
49101;SDS011;34913;47.520;19.186;2023-04-03T03:33:04;3.95;;;2.88;;
49101;SDS011;34913;47.520;19.186;2023-04-03T03:35:30;3.72;;;2.95;;
49101;SDS011;34913;47.520;19.186;2023-04-03T03:37:55;3.95;;;2.97;;
49101;SDS011;34913;47.520;19.186;2023-04-03T03:40:20;4.55;;;3.00;;
49101;SDS011;34913;47.520;19.186;2023-04-03T03:42:46;5.97;;;3.20;;
49101;SDS011;34913;47.520;19.186;2023-04-03T03:45:11;3.78;;;3.00;;
49101;SDS011;34913;47.520;19.186;2023-04-03T03:47:37;4.88;;;3.35;;
49101;SDS011;34913;47.520;19.186;2023-04-03T03:50:02;4.57;;;3.10;;
49101;SDS011;34913;47.520;19.186;2023-04-03T03:52:28;3.85;;;3.20;;
49101;SDS011;34913;47.520;19.186;2023-04-03T03:54:55;4.25;;;2.92;;
49101;SDS011;34913;47.520;19.186;2023-04-03T03:57:21;4.00;;;3.20;;
49101;SDS011;34913;47.520;19.186;2023-04-03T03:59:46;4.57;;;3.28;;
49101;SDS011;34913;47.520;19.186;2023-04-03T04:02:13;5.38;;;3.50;;
49101;SDS011;34913;47.520;19.186;2023-04-03T04:04:39;3.92;;;2.90;;
49101;SDS011;34913;47.520;19.186;2023-04-03T04:07:04;4.07;;;3.20;;
49101;SDS011;34913;47.520;19.186;2023-04-03T04:09:30;4.10;;;3.20;;
49101;SDS011;34913;47.520;19.186;2023-04-03T04:11:55;4.63;;;3.70;;
49101;SDS011;34913;47.520;19.186;2023-04-03T04:14:21;4.15;;;3.10;;
49101;SDS011;34913;47.520;19.186;2023-04-03T04:16:46;5.18;;;3.55;;
49101;SDS011;34913;47.520;19.186;2023-04-03T04:19:12;4.32;;;3.40;;
49101;SDS011;34913;47.520;19.186;2023-04-03T04:21:38;5.85;;;3.60;;
49101;SDS011;34913;47.520;19.186;2023-04-03T04:24:04;4.68;;;3.45;;
49101;SDS011;34913;47.520;19.186;2023-04-03T04:26:30;4.63;;;3.10;;
49101;SDS011;34913;47.520;19.186;2023-04-03T04:28:56;4.68;;;3.05;;
49101;SDS011;34913;47.520;19.186;2023-04-03T04:31:21;4.63;;;3.25;;
49101;SDS011;34913;47.520;19.186;2023-04-03T04:33:47;3.85;;;3.30;;
49101;SDS011;34913;47.520;19.186;2023-04-03T04:36:12;4.25;;;3.33;;
49101;SDS011;34913;47.520;19.186;2023-04-03T04:38:39;4.93;;;3.60;;
49101;SDS011;34913;47.520;19.186;2023-04-03T04:41:05;5.70;;;4.00;;
49101;SDS011;34913;47.520;19.186;2023-04-03T04:43:30;5.47;;;3.80;;
49101;SDS011;34913;47.520;19.186;2023-04-03T04:46:08;5.07;;;4.07;;
49101;SDS011;34913;47.520;19.186;2023-04-03T04:48:36;6.75;;;4.50;;
49101;SDS011;34913;47.520;19.186;2023-04-03T04:51:02;6.22;;;4.28;;
49101;SDS011;34913;47.520;19.186;2023-04-03T04:53:27;7.43;;;4.55;;
49101;SDS011;34913;47.520;19.186;2023-04-03T04:55:53;9.05;;;4.60;;
49101;SDS011;34913;47.520;19.186;2023-04-03T04:58:19;6.85;;;4.40;;
49101;SDS011;34913;47.520;19.186;2023-04-03T05:00:45;7.22;;;4.32;;
49101;SDS011;34913;47.520;19.186;2023-04-03T05:03:10;5.80;;;4.20;;
49101;SDS011;34913;47.520;19.186;2023-04-03T05:05:36;6.35;;;4.22;;
49101;SDS011;34913;47.520;19.186;2023-04-03T05:08:02;7.45;;;4.15;;
49101;SDS011;34913;47.520;19.186;2023-04-03T05:10:28;7.15;;;4.25;;
49101;SDS011;34913;47.520;19.186;2023-04-03T05:12:54;5.15;;;3.90;;
49101;SDS011;34913;47.520;19.186;2023-04-03T05:15:19;5.00;;;3.63;;
49101;SDS011;34913;47.520;19.186;2023-04-03T05:17:45;6.13;;;3.85;;
49101;SDS011;34913;47.520;19.186;2023-04-03T05:20:11;5.50;;;3.88;;
49101;SDS011;34913;47.520;19.186;2023-04-03T05:22:37;4.72;;;3.90;;
49101;SDS011;34913;47.520;19.186;2023-04-03T05:25:02;5.43;;;3.95;;
49101;SDS011;34913;47.520;19.186;2023-04-03T05:27:28;5.28;;;3.92;;
49101;SDS011;34913;47.520;19.186;2023-04-03T05:29:54;5.78;;;3.95;;
49101;SDS011;34913;47.520;19.186;2023-04-03T05:32:20;4.90;;;3.60;;
49101;SDS011;34913;47.520;19.186;2023-04-03T05:34:47;6.80;;;4.13;;
49101;SDS011;34913;47.520;19.186;2023-04-03T05:37:12;6.28;;;3.75;;
49101;SDS011;34913;47.520;19.186;2023-04-03T05:39:38;5.53;;;3.85;;
49101;SDS011;34913;47.520;19.186;2023-04-03T05:42:06;6.57;;;3.83;;
49101;SDS011;34913;47.520;19.186;2023-04-03T05:44:32;4.95;;;3.78;;
49101;SDS011;34913;47.520;19.186;2023-04-03T05:46:58;5.63;;;3.63;;
49101;SDS011;34913;47.520;19.186;2023-04-03T05:49:23;6.72;;;4.30;;
49101;SDS011;34913;47.520;19.186;2023-04-03T05:51:49;5.32;;;3.80;;
49101;SDS011;34913;47.520;19.186;2023-04-03T05:54:34;5.75;;;4.00;;
49101;SDS011;34913;47.520;19.186;2023-04-03T05:57:00;6.93;;;4.80;;
49101;SDS011;34913;47.520;19.186;2023-04-03T05:59:25;5.30;;;4.00;;
49101;SDS011;34913;47.520;19.186;2023-04-03T06:01:51;6.35;;;3.85;;
49101;SDS011;34913;47.520;19.186;2023-04-03T06:04:17;6.10;;;4.20;;
49101;SDS011;34913;47.520;19.186;2023-04-03T06:06:54;4.63;;;3.70;;
49101;SDS011;34913;47.520;19.186;2023-04-03T06:09:21;4.72;;;3.70;;
49101;SDS011;34913;47.520;19.186;2023-04-03T06:11:49;4.90;;;3.90;;
49101;SDS011;34913;47.520;19.186;2023-04-03T06:14:15;6.15;;;3.90;;
49101;SDS011;34913;47.520;19.186;2023-04-03T06:16:40;4.63;;;3.63;;
49101;SDS011;34913;47.520;19.186;2023-04-03T06:19:09;5.45;;;3.30;;
49101;SDS011;34913;47.520;19.186;2023-04-03T06:21:36;4.00;;;3.10;;
49101;SDS011;34913;47.520;19.186;2023-04-03T06:24:02;4.07;;;3.10;;
49101;SDS011;34913;47.520;19.186;2023-04-03T06:26:28;4.28;;;3.17;;
49101;SDS011;34913;47.520;19.186;2023-04-03T06:28:54;4.20;;;2.80;;
49101;SDS011;34913;47.520;19.186;2023-04-03T06:31:19;4.10;;;2.85;;
49101;SDS011;34913;47.520;19.186;2023-04-03T06:33:45;5.35;;;2.83;;
49101;SDS011;34913;47.520;19.186;2023-04-03T06:36:10;3.60;;;2.67;;
49101;SDS011;34913;47.520;19.186;2023-04-03T06:38:37;6.07;;;2.63;;
49101;SDS011;34913;47.520;19.186;2023-04-03T06:41:02;2.63;;;2.38;;
49101;SDS011;34913;47.520;19.186;2023-04-03T06:43:28;3.47;;;2.60;;
49101;SDS011;34913;47.520;19.186;2023-04-03T06:45:53;2.85;;;2.40;;
49101;SDS011;34913;47.520;19.186;2023-04-03T06:48:19;2.58;;;2.25;;
49101;SDS011;34913;47.520;19.186;2023-04-03T06:50:44;4.90;;;2.92;;
49101;SDS011;34913;47.520;19.186;2023-04-03T06:53:10;3.63;;;2.40;;
49101;SDS011;34913;47.520;19.186;2023-04-03T06:55:36;2.95;;;2.63;;
49101;SDS011;34913;47.520;19.186;2023-04-03T06:58:02;3.10;;;2.22;;
49101;SDS011;34913;47.520;19.186;2023-04-03T07:00:28;4.43;;;2.40;;
49101;SDS011;34913;47.520;19.186;2023-04-03T07:02:55;3.08;;;2.10;;
49101;SDS011;34913;47.520;19.186;2023-04-03T07:05:22;3.47;;;2.58;;
49101;SDS011;34913;47.520;19.186;2023-04-03T07:07:48;3.05;;;2.40;;
49101;SDS011;34913;47.520;19.186;2023-04-03T07:10:15;5.80;;;2.50;;
49101;SDS011;34913;47.520;19.186;2023-04-03T07:12:41;3.25;;;2.28;;
49101;SDS011;34913;47.520;19.186;2023-04-03T07:15:07;3.03;;;2.13;;
49101;SDS011;34913;47.520;19.186;2023-04-03T07:17:33;2.75;;;2.30;;
49101;SDS011;34913;47.520;19.186;2023-04-03T07:19:59;2.90;;;2.30;;
49101;SDS011;34913;47.520;19.186;2023-04-03T07:22:25;3.22;;;2.13;;
49101;SDS011;34913;47.520;19.186;2023-04-03T07:24:50;2.40;;;2.00;;
49101;SDS011;34913;47.520;19.186;2023-04-03T07:27:16;2.95;;;2.13;;
49101;SDS011;34913;47.520;19.186;2023-04-03T07:29:42;2.67;;;2.05;;
49101;SDS011;34913;47.520;19.186;2023-04-03T07:32:09;2.35;;;1.83;;
49101;SDS011;34913;47.520;19.186;2023-04-03T07:34:34;2.78;;;2.15;;
49101;SDS011;34913;47.520;19.186;2023-04-03T07:37:01;2.42;;;2.00;;
49101;SDS011;34913;47.520;19.186;2023-04-03T07:39:27;2.33;;;2.00;;
49101;SDS011;34913;47.520;19.186;2023-04-03T07:41:53;2.92;;;1.98;;
49101;SDS011;34913;47.520;19.186;2023-04-03T07:44:21;2.67;;;2.15;;
49101;SDS011;34913;47.520;19.186;2023-04-03T07:46:47;2.97;;;1.85;;
49101;SDS011;34913;47.520;19.186;2023-04-03T07:49:13;2.55;;;2.08;;
49101;SDS011;34913;47.520;19.186;2023-04-03T07:51:39;3.45;;;2.13;;
49101;SDS011;34913;47.520;19.186;2023-04-03T07:54:04;2.92;;;2.15;;
49101;SDS011;34913;47.520;19.186;2023-04-03T07:56:30;2.47;;;1.95;;
49101;SDS011;34913;47.520;19.186;2023-04-03T07:58:57;2.85;;;2.10;;
49101;SDS011;34913;47.520;19.186;2023-04-03T08:01:22;2.63;;;2.00;;
49101;SDS011;34913;47.520;19.186;2023-04-03T08:03:47;2.53;;;2.00;;
49101;SDS011;34913;47.520;19.186;2023-04-03T08:06:13;3.00;;;1.98;;
49101;SDS011;34913;47.520;19.186;2023-04-03T08:08:40;3.42;;;2.20;;
49101;SDS011;34913;47.520;19.186;2023-04-03T08:11:06;2.75;;;1.90;;
49101;SDS011;34913;47.520;19.186;2023-04-03T08:13:33;3.10;;;2.13;;
49101;SDS011;34913;47.520;19.186;2023-04-03T08:16:06;2.80;;;2.28;;
49101;SDS011;34913;47.520;19.186;2023-04-03T08:18:36;3.30;;;2.30;;
49101;SDS011;34913;47.520;19.186;2023-04-03T08:21:05;2.72;;;1.83;;
49101;SDS011;34913;47.520;19.186;2023-04-03T08:23:31;3.03;;;2.17;;
49101;SDS011;34913;47.520;19.186;2023-04-03T08:25:56;3.08;;;2.08;;
49101;SDS011;34913;47.520;19.186;2023-04-03T08:28:22;3.08;;;1.95;;
49101;SDS011;34913;47.520;19.186;2023-04-03T08:30:47;2.30;;;1.95;;
49101;SDS011;34913;47.520;19.186;2023-04-03T08:33:13;3.08;;;2.47;;
49101;SDS011;34913;47.520;19.186;2023-04-03T08:35:39;2.75;;;1.80;;
49101;SDS011;34913;47.520;19.186;2023-04-03T08:38:06;3.88;;;2.10;;
49101;SDS011;34913;47.520;19.186;2023-04-03T08:40:32;2.05;;;1.85;;
49101;SDS011;34913;47.520;19.186;2023-04-03T08:46:05;2.97;;;1.90;;
49101;SDS011;34913;47.520;19.186;2023-04-03T08:48:35;2.28;;;1.88;;
49101;SDS011;34913;47.520;19.186;2023-04-03T08:51:09;2.88;;;2.03;;
49101;SDS011;34913;47.520;19.186;2023-04-03T08:53:55;2.15;;;1.73;;
49101;SDS011;34913;47.520;19.186;2023-04-03T08:56:24;2.92;;;1.77;;
49101;SDS011;34913;47.520;19.186;2023-04-03T08:58:58;2.35;;;1.92;;
49101;SDS011;34913;47.520;19.186;2023-04-03T09:01:49;2.80;;;1.92;;
49101;SDS011;34913;47.520;19.186;2023-04-03T09:04:16;2.05;;;1.75;;
49101;SDS011;34913;47.520;19.186;2023-04-03T09:07:25;10.55;;;2.72;;
49101;SDS011;34913;47.520;19.186;2023-04-03T09:09:39;3.00;;;2.03;;
49101;SDS011;34913;47.520;19.186;2023-04-03T09:12:12;2.08;;;1.83;;
49101;SDS011;34913;47.520;19.186;2023-04-03T09:22:58;1.98;;;1.73;;
49101;SDS011;34913;47.520;19.186;2023-04-03T09:25:33;6.97;;;1.98;;
49101;SDS011;34913;47.520;19.186;2023-04-03T09:28:04;2.80;;;2.00;;
49101;SDS011;34913;47.520;19.186;2023-04-03T09:30:34;4.15;;;2.20;;
49101;SDS011;34913;47.520;19.186;2023-04-03T09:33:00;6.88;;;2.15;;
49101;SDS011;34913;47.520;19.186;2023-04-03T09:35:31;2.45;;;1.98;;
49101;SDS011;34913;47.520;19.186;2023-04-03T09:37:59;2.30;;;1.98;;
49101;SDS011;34913;47.520;19.186;2023-04-03T09:40:41;4.55;;;1.80;;
49101;SDS011;34913;47.520;19.186;2023-04-03T09:45:46;2.13;;;1.73;;
49101;SDS011;34913;47.520;19.186;2023-04-03T09:51:00;2.40;;;2.10;;
49101;SDS011;34913;47.520;19.186;2023-04-03T09:53:33;2.97;;;1.80;;
49101;SDS011;34913;47.520;19.186;2023-04-03T09:55:59;2.63;;;1.70;;
49101;SDS011;34913;47.520;19.186;2023-04-03T09:58:33;2.17;;;1.63;;
49101;SDS011;34913;47.520;19.186;2023-04-03T10:01:05;3.15;;;1.77;;
49101;SDS011;34913;47.520;19.186;2023-04-03T10:03:32;3.22;;;1.60;;
49101;SDS011;34913;47.520;19.186;2023-04-03T10:06:04;2.80;;;1.60;;
49101;SDS011;34913;47.520;19.186;2023-04-03T10:09:02;1.67;;;1.40;;
49101;SDS011;34913;47.520;19.186;2023-04-03T10:11:30;1.30;;;1.20;;
49101;SDS011;34913;47.520;19.186;2023-04-03T10:14:00;2.38;;;1.30;;
49101;SDS011;34913;47.520;19.186;2023-04-03T10:27:07;1.98;;;1.40;;
49101;SDS011;34913;47.520;19.186;2023-04-03T10:34:47;1.50;;;1.40;;
49101;SDS011;34913;47.520;19.186;2023-04-03T10:37:21;7.20;;;4.28;;
49101;SDS011;34913;47.520;19.186;2023-04-03T10:39:56;6.90;;;4.00;;
49101;SDS011;34913;47.520;19.186;2023-04-03T10:42:51;1.80;;;1.63;;
49101;SDS011;34913;47.520;19.186;2023-04-03T10:50:48;2.15;;;1.50;;
49101;SDS011;34913;47.520;19.186;2023-04-03T10:53:17;1.20;;;1.02;;
49101;SDS011;34913;47.520;19.186;2023-04-03T10:55:58;1.73;;;1.10;;
49101;SDS011;34913;47.520;19.186;2023-04-03T10:58:34;1.40;;;1.30;;
49101;SDS011;34913;47.520;19.186;2023-04-03T11:01:11;3.30;;;1.42;;
49101;SDS011;34913;47.520;19.186;2023-04-03T11:03:41;2.17;;;1.30;;
49101;SDS011;34913;47.520;19.186;2023-04-03T11:06:19;1.92;;;1.50;;
49101;SDS011;34913;47.520;19.186;2023-04-03T11:08:50;1.60;;;1.40;;
49101;SDS011;34913;47.520;19.186;2023-04-03T11:11:25;1.88;;;1.20;;
49101;SDS011;34913;47.520;19.186;2023-04-03T11:16:23;1.20;;;1.10;;
49101;SDS011;34913;47.520;19.186;2023-04-03T11:18:54;2.30;;;1.00;;
49101;SDS011;34913;47.520;19.186;2023-04-03T11:21:45;0.80;;;0.80;;
49101;SDS011;34913;47.520;19.186;2023-04-03T11:24:25;1.15;;;1.00;;
49101;SDS011;34913;47.520;19.186;2023-04-03T11:26:52;0.90;;;0.80;;
49101;SDS011;34913;47.520;19.186;2023-04-03T11:29:23;1.40;;;1.15;;
49101;SDS011;34913;47.520;19.186;2023-04-03T11:34:42;1.30;;;1.00;;
49101;SDS011;34913;47.520;19.186;2023-04-03T11:42:52;1.83;;;1.20;;
49101;SDS011;34913;47.520;19.186;2023-04-03T11:50:48;1.48;;;1.30;;
49101;SDS011;34913;47.520;19.186;2023-04-03T11:58:17;1.98;;;1.50;;
49101;SDS011;34913;47.520;19.186;2023-04-03T12:00:52;1.70;;;1.50;;
49101;SDS011;34913;47.520;19.186;2023-04-03T12:03:32;1.92;;;1.70;;
49101;SDS011;34913;47.520;19.186;2023-04-03T12:06:41;1.73;;;1.40;;
49101;SDS011;34913;47.520;19.186;2023-04-03T12:08:45;2.00;;;1.50;;
49101;SDS011;34913;47.520;19.186;2023-04-03T12:21:13;1.88;;;1.50;;
49101;SDS011;34913;47.520;19.186;2023-04-03T12:26:31;2.00;;;1.50;;
49101;SDS011;34913;47.520;19.186;2023-04-03T12:29:13;2.05;;;1.70;;
49101;SDS011;34913;47.520;19.186;2023-04-03T12:37:51;2.17;;;1.80;;
49101;SDS011;34913;47.520;19.186;2023-04-03T12:43:15;1.77;;;1.30;;
49101;SDS011;34913;47.520;19.186;2023-04-03T12:45:48;1.92;;;1.25;;
49101;SDS011;34913;47.520;19.186;2023-04-03T12:48:25;1.85;;;1.05;;
49101;SDS011;34913;47.520;19.186;2023-04-03T12:50:52;1.40;;;1.25;;
49101;SDS011;34913;47.520;19.186;2023-04-03T12:53:31;2.08;;;1.33;;
49101;SDS011;34913;47.520;19.186;2023-04-03T12:58:45;1.30;;;1.05;;
49101;SDS011;34913;47.520;19.186;2023-04-03T13:01:16;1.67;;;1.17;;
49101;SDS011;34913;47.520;19.186;2023-04-03T13:06:21;1.30;;;1.20;;
49101;SDS011;34913;47.520;19.186;2023-04-03T13:08:56;1.40;;;1.30;;
49101;SDS011;34913;47.520;19.186;2023-04-03T13:11:27;3.67;;;1.80;;
49101;SDS011;34913;47.520;19.186;2023-04-03T13:13:58;5.70;;;1.58;;
49101;SDS011;34913;47.520;19.186;2023-04-03T13:16:24;2.80;;;1.38;;
49101;SDS011;34913;47.520;19.186;2023-04-03T13:18:52;1.98;;;1.40;;
49101;SDS011;34913;47.520;19.186;2023-04-03T13:21:19;1.38;;;1.20;;
49101;SDS011;34913;47.520;19.186;2023-04-03T13:24:00;3.03;;;1.40;;
49101;SDS011;34913;47.520;19.186;2023-04-03T13:26:29;2.80;;;1.40;;
49101;SDS011;34913;47.520;19.186;2023-04-03T13:29:02;1.65;;;1.20;;
49101;SDS011;34913;47.520;19.186;2023-04-03T13:31:32;1.45;;;1.20;;
49101;SDS011;34913;47.520;19.186;2023-04-03T13:36:35;1.55;;;1.25;;
49101;SDS011;34913;47.520;19.186;2023-04-03T13:39:20;2.20;;;1.30;;
49101;SDS011;34913;47.520;19.186;2023-04-03T13:41:49;1.60;;;1.27;;
49101;SDS011;34913;47.520;19.186;2023-04-03T13:46:45;1.60;;;1.27;;
49101;SDS011;34913;47.520;19.186;2023-04-03T13:51:46;3.00;;;1.65;;
49101;SDS011;34913;47.520;19.186;2023-04-03T13:54:18;1.23;;;1.13;;
49101;SDS011;34913;47.520;19.186;2023-04-03T13:56:51;2.22;;;1.67;;
49101;SDS011;34913;47.520;19.186;2023-04-03T13:59:20;3.35;;;2.08;;
49101;SDS011;34913;47.520;19.186;2023-04-03T14:06:57;1.40;;;1.10;;
49101;SDS011;34913;47.520;19.186;2023-04-03T14:09:23;1.30;;;1.00;;
49101;SDS011;34913;47.520;19.186;2023-04-03T14:11:52;1.10;;;1.00;;
49101;SDS011;34913;47.520;19.186;2023-04-03T14:14:21;1.33;;;1.05;;
49101;SDS011;34913;47.520;19.186;2023-04-03T14:16:55;1.10;;;1.00;;
49101;SDS011;34913;47.520;19.186;2023-04-03T14:21:59;2.58;;;1.40;;
49101;SDS011;34913;47.520;19.186;2023-04-03T14:24:31;1.17;;;1.08;;
49101;SDS011;34913;47.520;19.186;2023-04-03T14:26:57;1.10;;;1.00;;
49101;SDS011;34913;47.520;19.186;2023-04-03T14:29:23;1.45;;;1.15;;
49101;SDS011;34913;47.520;19.186;2023-04-03T14:31:49;2.53;;;1.50;;
49101;SDS011;34913;47.520;19.186;2023-04-03T14:34:15;1.60;;;1.45;;
49101;SDS011;34913;47.520;19.186;2023-04-03T14:36:42;4.70;;;2.22;;
49101;SDS011;34913;47.520;19.186;2023-04-03T14:39:18;3.90;;;2.55;;
49101;SDS011;34913;47.520;19.186;2023-04-03T14:41:44;2.30;;;1.70;;
49101;SDS011;34913;47.520;19.186;2023-04-03T14:44:10;2.00;;;1.48;;
49101;SDS011;34913;47.520;19.186;2023-04-03T14:46:37;1.20;;;1.10;;
49101;SDS011;34913;47.520;19.186;2023-04-03T14:49:12;1.42;;;1.15;;
49101;SDS011;34913;47.520;19.186;2023-04-03T14:51:40;1.48;;;1.20;;
49101;SDS011;34913;47.520;19.186;2023-04-03T14:54:10;1.70;;;1.20;;
49101;SDS011;34913;47.520;19.186;2023-04-03T14:56:39;1.70;;;1.15;;
49101;SDS011;34913;47.520;19.186;2023-04-03T14:59:05;1.38;;;1.10;;
49101;SDS011;34913;47.520;19.186;2023-04-03T15:01:35;2.03;;;1.00;;
49101;SDS011;34913;47.520;19.186;2023-04-03T15:04:01;1.38;;;1.13;;
49101;SDS011;34913;47.520;19.186;2023-04-03T15:06:26;3.72;;;1.20;;
49101;SDS011;34913;47.520;19.186;2023-04-03T15:08:52;1.35;;;1.00;;
49101;SDS011;34913;47.520;19.186;2023-04-03T15:11:17;1.02;;;0.90;;
49101;SDS011;34913;47.520;19.186;2023-04-03T15:13:42;1.35;;;1.10;;
49101;SDS011;34913;47.520;19.186;2023-04-03T15:16:18;1.00;;;0.90;;
49101;SDS011;34913;47.520;19.186;2023-04-03T15:18:44;1.48;;;1.10;;
49101;SDS011;34913;47.520;19.186;2023-04-03T15:21:11;1.58;;;1.10;;
49101;SDS011;34913;47.520;19.186;2023-04-03T15:23:36;3.03;;;1.85;;
49101;SDS011;34913;47.520;19.186;2023-04-03T15:26:02;1.58;;;1.17;;
49101;SDS011;34913;47.520;19.186;2023-04-03T15:28:30;1.85;;;1.30;;
49101;SDS011;34913;47.520;19.186;2023-04-03T15:30:57;3.00;;;1.23;;
49101;SDS011;34913;47.520;19.186;2023-04-03T15:33:23;1.23;;;1.10;;
49101;SDS011;34913;47.520;19.186;2023-04-03T15:35:49;1.27;;;0.93;;
49101;SDS011;34913;47.520;19.186;2023-04-03T15:38:15;5.07;;;0.90;;
49101;SDS011;34913;47.520;19.186;2023-04-03T15:40:40;1.00;;;0.90;;
49101;SDS011;34913;47.520;19.186;2023-04-03T15:43:07;1.13;;;0.98;;
49101;SDS011;34913;47.520;19.186;2023-04-03T15:45:33;1.30;;;0.98;;
49101;SDS011;34913;47.520;19.186;2023-04-03T15:48:02;2.55;;;1.08;;
49101;SDS011;34913;47.520;19.186;2023-04-03T15:50:28;1.10;;;0.93;;
49101;SDS011;34913;47.520;19.186;2023-04-03T15:52:54;2.15;;;1.00;;
49101;SDS011;34913;47.520;19.186;2023-04-03T15:55:26;2.78;;;1.30;;
49101;SDS011;34913;47.520;19.186;2023-04-03T15:57:53;1.55;;;1.10;;
49101;SDS011;34913;47.520;19.186;2023-04-03T16:00:19;1.50;;;1.27;;
49101;SDS011;34913;47.520;19.186;2023-04-03T16:02:46;3.60;;;1.55;;
49101;SDS011;34913;47.520;19.186;2023-04-03T16:05:13;2.30;;;1.70;;
49101;SDS011;34913;47.520;19.186;2023-04-03T16:07:42;2.03;;;1.60;;
49101;SDS011;34913;47.520;19.186;2023-04-03T16:10:08;1.80;;;1.50;;
49101;SDS011;34913;47.520;19.186;2023-04-03T16:12:38;3.05;;;1.40;;
49101;SDS011;34913;47.520;19.186;2023-04-03T16:15:04;1.48;;;1.10;;
49101;SDS011;34913;47.520;19.186;2023-04-03T16:17:31;2.08;;;1.20;;
49101;SDS011;34913;47.520;19.186;2023-04-03T16:19:57;1.25;;;1.15;;
49101;SDS011;34913;47.520;19.186;2023-04-03T16:22:24;2.35;;;1.30;;
49101;SDS011;34913;47.520;19.186;2023-04-03T16:24:52;1.63;;;1.30;;
49101;SDS011;34913;47.520;19.186;2023-04-03T16:27:18;2.17;;;1.40;;
49101;SDS011;34913;47.520;19.186;2023-04-03T16:29:44;2.65;;;1.60;;
49101;SDS011;34913;47.520;19.186;2023-04-03T16:32:09;2.13;;;1.30;;
49101;SDS011;34913;47.520;19.186;2023-04-03T16:34:36;3.42;;;1.40;;
49101;SDS011;34913;47.520;19.186;2023-04-03T16:37:02;2.22;;;1.60;;